Wellen, Belgium
Current Conditions -  °F | °C
As of 7:20 PM on Friday 28 Nov 2014 (Local Time) from EBLG Reporting Station
Haze Haze  
Wind Chill: 38°   Ceiling: Unl
Heat Index: 41°   Visibility: 3mi
Dew Point: 37°   Wind: 5mph
Humidity: 87%   Direction: 20°NNE
Pressure: 29.77"   Gusts: NA
Location:  50.84°N, 5.34°E
Report Text: EBLG 281820Z 02004KT 5000 BR NSC 05/03 Q1008 NOSIG
Loading
Personal Weather Stations






























Interactive Weather Map New forecast layout! Learn more

10-Day Weather Forecast

Advertisements
Track Severe Weather on mobile